Rain From: 21-07-2018 02:00 Until: 16:00 warning for: Rain Level: Yellow info button
suomi:
Sadevaroitus: Aamuyöstä alkaen voi sataa rankasti, yli 20 mm tunnissa.

svenska:
Nederbördsvarning: Från och med efternatten kan det förekomma synnerligen riklig nederbörd, mer än 20 mm i timmen.

english:
Heavy rain warning: From the early morning on heavy rain of more than 20 mm per hour can be expected. 

Forest fire From: 20-07-2018 23:00 Until: 21-07-2018 11:00 warning for: Forest fire Level: Yellow info button
suomi:
Metsäpalovaroitus on voimassa.

svenska:
Varning för skogsbrand gäller.

english:
A forest fire warning is in force. 


Thunder radar more information blitzortung!


Löydät sääaseman tiedot myös:

European Weather Network

Finland Weather Exchange

Weather Underground

AWEKAS



Weather Underground säähistoriasivu

Päivittäin yhteenveto Syyskuu 22, 2017 Yksiköt:  Englantilaiset    Metriset   Molemmat
« Edellinen Päivä
Seuraava Päivä »
Päivittäin Viikoittain Kuukausittain Vuosittain Mukautettu
  Korkea: Matala: Keskiarvo:
Lämpötila: TemperatureC °F 6.2 °F 10.3 °F
Kastepiste: DewpointC °F 5.6 °F 8.7 °F
Kosteus: Humidity % 78 % 90 %
Tuulen nopeus: WindSpeedKMH mph 0.0 mph 0.3 mph
Tuulenpuuska: WindSpeedGustKMH mph - -
Tuuli:- - SE
Ilmanpaine: PressurehPa in 1027.7 in -
Sade: 0.0 in    
Historical Graphs
 
 
Taulukkotiedot Syyskuu 22, 2017
Aika Lämpötila Kastepiste Ilmanpaine Tuuli Tuulen nopeus Tuulenpuuska Kosteus Sademäärä (tunneittain)
TemperatureC °F DewpointC °F PressurehPa in Calm     Humidity % HourlyPrecipMM in
00:00 9.5 °F 9.0 °F 1029.3 in Calm   6.4 mph 97 % 0.0 in
00:15 9.6 °F 9.2 °F 1029.3 in Calm   3.2 mph 97 % 0.0 in
00:30 9.6 °F 9.1 °F 1029.3 in Calm     97 % 0.0 in
00:45 9.4 °F 9.0 °F 1029.3 in Calm     97 % 0.0 in
01:00 9.3 °F 8.9 °F 1029.3 in Calm   1.6 mph 97 % 0.0 in
01:15 9.4 °F 8.9 °F 1029.3 in Calm   1.6 mph 97 % 0.0 in
01:30 9.5 °F 9.0 °F 1029.3 in Calm     97 % 0.0 in
02:00 9.6 °F 9.0 °F 1029.7 in Calm     96 % 0.0 in
02:15 9.6 °F 9.0 °F 1029.7 in Calm     96 % 0.0 in
02:30 9.6 °F 8.9 °F 1029.7 in Calm     96 % 0.0 in
02:45 9.6 °F 9.0 °F 1029.7 in Calm     96 % 0.0 in
03:00 9.6 °F 8.9 °F 1029.7 in Calm     96 % 0.0 in
03:15 9.6 °F 8.9 °F 1029.7 in Calm   3.2 mph 96 % 0.0 in
03:30 9.5 °F 8.9 °F 1029.3 in Calm     96 % 0.0 in
03:45 9.4 °F 8.8 °F 1029.3 in Calm     96 % 0.0 in
04:00 9.4 °F 8.8 °F 1029.3 in Calm     96 % 0.0 in
04:15 9.3 °F 8.7 °F 1029.3 in Calm   3.2 mph 96 % 0.0 in
04:30 9.3 °F 8.7 °F 1029.3 in Calm     96 % 0.0 in
04:45 9.2 °F 8.6 °F 1029.3 in Calm     96 % 0.0 in
05:00 9.1 °F 8.5 °F 1029.3 in Calm     96 % 0.0 in
05:15 8.9 °F 8.2 °F 1029.3 in Calm   1.6 mph 95 % 0.0 in
05:30 8.8 °F 8.2 °F 1029.3 in Calm     96 % 0.0 in
05:45 8.7 °F 8.1 °F 1029.3 in Calm     96 % 0.0 in
06:00 8.5 °F 7.9 °F 1029.0 in Calm     96 % 0.0 in
06:15 8.2 °F 7.4 °F 1029.0 in Calm     95 % 0.0 in
06:30 7.7 °F 7.0 °F 1029.0 in Calm     95 % 0.0 in
06:45 7.4 °F 6.8 °F 1029.0 in Calm     96 % 0.0 in
07:00 7.2 °F 6.6 °F 1028.7 in Calm     96 % 0.0 in
07:15 6.8 °F 6.2 °F 1029.0 in Calm     96 % 0.0 in
07:30 6.5 °F 5.9 °F 1029.0 in Calm     96 % 0.0 in
07:45 6.3 °F 5.7 °F 1028.7 in Calm     96 % 0.0 in
08:00 6.2 °F 5.6 °F 1028.7 in Calm     96 % 0.0 in
08:30 6.2 °F 5.8 °F 1028.7 in Calm     97 % 0.0 in
08:45 6.4 °F 5.9 °F 1028.7 in Calm     97 % 0.0 in
09:00 6.8 °F 6.4 °F 1028.7 in Calm     97 % 0.0 in
09:15 7.6 °F 7.3 °F 1028.7 in Calm   6.4 mph 98 % 0.0 in
09:30 8.2 °F 7.9 °F 1028.7 in Calm   3.2 mph 98 % 0.0 in
09:45 8.8 °F 8.5 °F 1028.7 in ESE 1.6 mph 6.4 mph 98 % 0.0 in
10:00 9.1 °F 8.8 °F 1028.7 in Calm   6.4 mph 98 % 0.0 in
10:15 9.3 °F 9.0 °F 1028.3 in ESE 1.6 mph 9.7 mph 98 % 0.0 in
10:30 9.7 °F 9.2 °F 1028.3 in Calm   8.0 mph 97 % 0.0 in
10:45 9.6 °F 8.6 °F 1028.3 in SE 1.6 mph 9.7 mph 94 % 0.0 in
11:00 9.9 °F 8.9 °F 1028.3 in SE 1.6 mph 8.0 mph 93 % 0.0 in
11:15 10.7 °F 9.5 °F 1028.3 in Calm   8.0 mph 92 % 0.0 in
11:30 11.0 °F 9.1 °F 1028.0 in SSE 1.6 mph 14.5 mph 88 % 0.0 in
11:45 11.3 °F 9.0 °F 1028.3 in Calm   1.6 mph 86 % 0.0 in
12:00 11.7 °F 9.4 °F 1028.3 in Calm   6.4 mph 86 % 0.0 in
12:15 12.0 °F 9.6 °F 1028.3 in Calm   4.8 mph 85 % 0.0 in
12:30 12.3 °F 9.5 °F 1028.7 in SSE 1.6 mph 8.0 mph 83 % 0.0 in
12:45 12.7 °F 9.9 °F 1028.7 in SSE 1.6 mph 12.9 mph 83 % 0.0 in
13:00 13.3 °F 10.1 °F 1028.7 in Calm   8.0 mph 81 % 0.0 in
13:15 13.2 °F 10.0 °F 1028.7 in Calm   8.0 mph 81 % 0.0 in
13:30 13.0 °F 9.4 °F 1028.7 in SSE 3.2 mph 11.3 mph 79 % 0.0 in
13:45 13.1 °F 9.9 °F 1028.7 in SSE 1.6 mph 6.4 mph 81 % 0.0 in
14:00 12.9 °F 9.6 °F 1028.7 in Calm   3.2 mph 80 % 0.0 in
14:15 13.3 °F 10.3 °F 1028.7 in Calm   6.4 mph 82 % 0.0 in
14:30 13.8 °F 10.2 °F 1028.3 in Calm   4.8 mph 79 % 0.0 in
14:45 13.9 °F 10.1 °F 1028.3 in East 1.6 mph 8.0 mph 78 % 0.0 in
15:00 13.7 °F 10.1 °F 1028.7 in Calm   6.4 mph 79 % 0.0 in
15:15 13.8 °F 10.2 °F 1028.7 in SSE 1.6 mph 11.3 mph 79 % 0.0 in
15:30 13.7 °F 10.1 °F 1028.7 in Calm   8.0 mph 79 % 0.0 in
15:45 13.4 °F 10.2 °F 1028.7 in SSE 1.6 mph 11.3 mph 81 % 0.0 in
16:00 13.0 °F 9.8 °F 1028.7 in ESE 1.6 mph 8.0 mph 81 % 0.0 in
16:15 12.5 °F 9.7 °F 1028.7 in SSE 1.6 mph 12.9 mph 83 % 0.0 in
16:30 12.2 °F 9.5 °F 1028.7 in Calm   6.4 mph 84 % 0.0 in
16:45 12.0 °F 9.6 °F 1028.7 in Calm   1.6 mph 85 % 0.0 in
17:00 11.9 °F 9.3 °F 1028.7 in Calm   8.0 mph 84 % 0.0 in
17:15 11.9 °F 9.4 °F 1028.7 in Calm   8.0 mph 85 % 0.0 in
17:30 11.9 °F 9.5 °F 1028.3 in Calm   1.6 mph 85 % 0.0 in
17:45 11.8 °F 9.4 °F 1028.3 in Calm   6.4 mph 85 % 0.0 in
18:00 11.8 °F 9.3 °F 1028.0 in Calm   8.0 mph 85 % 0.0 in
18:15 11.7 °F 9.2 °F 1028.0 in Calm   6.4 mph 85 % 0.0 in
18:30 11.6 °F 9.3 °F 1028.0 in Calm   6.4 mph 86 % 0.0 in
18:45 11.4 °F 9.1 °F 1028.0 in Calm   6.4 mph 86 % 0.0 in
19:00 11.3 °F 9.2 °F 1028.0 in Calm   4.8 mph 87 % 0.0 in
19:15 11.2 °F 9.3 °F 1028.0 in Calm   3.2 mph 88 % 0.0 in
19:30 11.1 °F 9.1 °F 1028.0 in Calm     88 % 0.0 in
19:45 11.0 °F 9.3 °F 1028.0 in Calm   1.6 mph 89 % 0.0 in
20:00 10.9 °F 9.3 °F 1028.0 in Calm     90 % 0.0 in
20:15 10.8 °F 9.3 °F 1028.0 in Calm     90 % 0.0 in
20:30 10.8 °F 9.4 °F 1028.0 in Calm     91 % 0.0 in
20:45 10.7 °F 9.3 °F 1028.0 in Calm   1.6 mph 91 % 0.0 in
21:00 10.7 °F 9.3 °F 1028.0 in Calm   1.6 mph 91 % 0.0 in
21:15 10.7 °F 9.1 °F 1027.7 in Calm   6.4 mph 90 % 0.0 in
21:30 10.7 °F 9.3 °F 1027.7 in Calm   1.6 mph 91 % 0.0 in
21:45 10.6 °F 9.2 °F 1028.0 in Calm   1.6 mph 91 % 0.0 in
22:00 10.6 °F 9.2 °F 1028.0 in Calm   3.2 mph 91 % 0.0 in
22:15 10.6 °F 9.2 °F 1028.0 in Calm   3.2 mph 91 % 0.0 in
22:30 10.7 °F 9.1 °F 1028.0 in SE 1.6 mph 8.0 mph 90 % 0.0 in
22:45 10.8 °F 9.2 °F 1028.0 in SE 1.6 mph 6.4 mph 90 % 0.0 in
23:00 10.8 °F 9.2 °F 1028.0 in Calm   6.4 mph 90 % 0.0 in
23:15 10.7 °F 9.1 °F 1028.0 in Calm   8.0 mph 90 % 0.0 in
23:30 10.6 °F 9.0 °F 1028.3 in SE 1.6 mph 11.3 mph 90 % 0.0 in
23:45 10.5 °F 8.9 °F 1028.7 in Calm   6.4 mph 90 % 0.0 in
Esan sääasema
Terveisin Weather Underground - 3 mb

Alkuperäinen skripti  Jim McMurry - jmcmurry@mwt.net Sovitettu myös templatelle  Wim van der Kuil - Leuven-Template.eu

Laitteet joita käytämme:

Sääasema
Davis VP2

Sääasemaohjelma
Cumulus

Sääaseman tietokone
Asus EeePC

Palveluntarjoaja
Suncomet

Davis VP2

Cumulus

Asus EeePC

Suncomet